sensor_id;sensor_type;location;lat;lon;timestamp;P1;durP1;ratioP1;P2;durP2;ratioP2
3941;SDS011;1985;48.592;8.850;2023-05-10T00:00:37;7.50;;;1.00;;
3941;SDS011;1985;48.592;8.850;2023-05-10T00:03:02;7.70;;;0.90;;
3941;SDS011;1985;48.592;8.850;2023-05-10T00:05:29;7.50;;;0.80;;
3941;SDS011;1985;48.592;8.850;2023-05-10T00:07:55;7.40;;;0.90;;
3941;SDS011;1985;48.592;8.850;2023-05-10T00:10:21;7.40;;;0.90;;
3941;SDS011;1985;48.592;8.850;2023-05-10T00:12:47;8.20;;;0.90;;
3941;SDS011;1985;48.592;8.850;2023-05-10T00:15:12;8.60;;;0.93;;
3941;SDS011;1985;48.592;8.850;2023-05-10T00:17:38;7.60;;;0.90;;
3941;SDS011;1985;48.592;8.850;2023-05-10T00:20:04;7.70;;;0.90;;
3941;SDS011;1985;48.592;8.850;2023-05-10T00:22:30;7.90;;;0.90;;
3941;SDS011;1985;48.592;8.850;2023-05-10T00:24:56;7.40;;;0.80;;
3941;SDS011;1985;48.592;8.850;2023-05-10T00:27:22;7.60;;;0.90;;
3941;SDS011;1985;48.592;8.850;2023-05-10T00:29:48;7.20;;;0.70;;
3941;SDS011;1985;48.592;8.850;2023-05-10T00:32:14;7.30;;;0.80;;
3941;SDS011;1985;48.592;8.850;2023-05-10T00:34:40;8.90;;;0.90;;
3941;SDS011;1985;48.592;8.850;2023-05-10T00:37:05;7.60;;;0.90;;
3941;SDS011;1985;48.592;8.850;2023-05-10T00:39:31;7.90;;;0.90;;
3941;SDS011;1985;48.592;8.850;2023-05-10T00:41:56;8.07;;;0.80;;
3941;SDS011;1985;48.592;8.850;2023-05-10T00:44:22;7.40;;;0.80;;
3941;SDS011;1985;48.592;8.850;2023-05-10T00:46:48;7.50;;;0.90;;
3941;SDS011;1985;48.592;8.850;2023-05-10T00:49:14;10.90;;;0.80;;
3941;SDS011;1985;48.592;8.850;2023-05-10T00:51:40;7.68;;;1.00;;
3941;SDS011;1985;48.592;8.850;2023-05-10T00:54:07;7.90;;;0.80;;
3941;SDS011;1985;48.592;8.850;2023-05-10T00:56:36;7.60;;;0.90;;
3941;SDS011;1985;48.592;8.850;2023-05-10T00:59:01;7.30;;;0.80;;
3941;SDS011;1985;48.592;8.850;2023-05-10T01:01:28;7.20;;;0.70;;
3941;SDS011;1985;48.592;8.850;2023-05-10T01:03:54;7.50;;;0.80;;
3941;SDS011;1985;48.592;8.850;2023-05-10T01:06:20;7.50;;;0.80;;
3941;SDS011;1985;48.592;8.850;2023-05-10T01:08:45;7.50;;;0.90;;
3941;SDS011;1985;48.592;8.850;2023-05-10T01:11:12;7.30;;;0.80;;
3941;SDS011;1985;48.592;8.850;2023-05-10T01:13:39;7.35;;;0.85;;
3941;SDS011;1985;48.592;8.850;2023-05-10T01:16:07;8.27;;;0.90;;
3941;SDS011;1985;48.592;8.850;2023-05-10T01:18:34;7.40;;;0.80;;
3941;SDS011;1985;48.592;8.850;2023-05-10T01:32:41;7.30;;;0.80;;
3941;SDS011;1985;48.592;8.850;2023-05-10T01:35:26;7.72;;;0.93;;
3941;SDS011;1985;48.592;8.850;2023-05-10T01:38:17;12.93;;;0.90;;
3941;SDS011;1985;48.592;8.850;2023-05-10T01:43:20;7.20;;;0.80;;
3941;SDS011;1985;48.592;8.850;2023-05-10T01:45:56;7.60;;;1.00;;
3941;SDS011;1985;48.592;8.850;2023-05-10T01:48:25;9.80;;;0.95;;
3941;SDS011;1985;48.592;8.850;2023-05-10T01:50:53;7.97;;;0.90;;
3941;SDS011;1985;48.592;8.850;2023-05-10T01:53:21;7.33;;;0.80;;
3941;SDS011;1985;48.592;8.850;2023-05-10T01:55:48;7.28;;;0.80;;
3941;SDS011;1985;48.592;8.850;2023-05-10T01:58:21;7.30;;;0.90;;
3941;SDS011;1985;48.592;8.850;2023-05-10T02:00:50;7.70;;;0.90;;
3941;SDS011;1985;48.592;8.850;2023-05-10T02:03:17;7.50;;;0.80;;
3941;SDS011;1985;48.592;8.850;2023-05-10T02:05:45;9.80;;;1.00;;
3941;SDS011;1985;48.592;8.850;2023-05-10T02:08:13;7.70;;;0.90;;
3941;SDS011;1985;48.592;8.850;2023-05-10T02:10:40;7.65;;;0.90;;
3941;SDS011;1985;48.592;8.850;2023-05-10T02:13:07;8.23;;;1.00;;
3941;SDS011;1985;48.592;8.850;2023-05-10T02:15:35;7.53;;;0.80;;
3941;SDS011;1985;48.592;8.850;2023-05-10T02:18:03;7.70;;;1.00;;
3941;SDS011;1985;48.592;8.850;2023-05-10T02:20:30;9.20;;;1.00;;
3941;SDS011;1985;48.592;8.850;2023-05-10T02:22:57;7.55;;;1.00;;
3941;SDS011;1985;48.592;8.850;2023-05-10T02:25:24;7.40;;;0.90;;
3941;SDS011;1985;48.592;8.850;2023-05-10T02:27:51;8.20;;;1.20;;
3941;SDS011;1985;48.592;8.850;2023-05-10T02:30:20;8.10;;;1.00;;
3941;SDS011;1985;48.592;8.850;2023-05-10T02:32:47;10.10;;;1.15;;
3941;SDS011;1985;48.592;8.850;2023-05-10T02:35:15;7.40;;;0.90;;
3941;SDS011;1985;48.592;8.850;2023-05-10T02:37:41;7.45;;;0.98;;
3941;SDS011;1985;48.592;8.850;2023-05-10T02:40:10;9.20;;;1.00;;
3941;SDS011;1985;48.592;8.850;2023-05-10T02:42:37;7.32;;;0.90;;
3941;SDS011;1985;48.592;8.850;2023-05-10T02:45:07;7.53;;;1.10;;
3941;SDS011;1985;48.592;8.850;2023-05-10T02:47:36;7.80;;;1.00;;
3941;SDS011;1985;48.592;8.850;2023-05-10T02:50:02;9.60;;;1.07;;
3941;SDS011;1985;48.592;8.850;2023-05-10T02:52:30;7.70;;;1.00;;
3941;SDS011;1985;48.592;8.850;2023-05-10T02:55:04;7.30;;;0.95;;
3941;SDS011;1985;48.592;8.850;2023-05-10T02:57:34;7.90;;;1.00;;
3941;SDS011;1985;48.592;8.850;2023-05-10T03:00:03;8.70;;;0.90;;
3941;SDS011;1985;48.592;8.850;2023-05-10T03:02:29;7.40;;;0.90;;
3941;SDS011;1985;48.592;8.850;2023-05-10T03:04:55;7.50;;;1.00;;
3941;SDS011;1985;48.592;8.850;2023-05-10T03:07:21;7.50;;;1.00;;
3941;SDS011;1985;48.592;8.850;2023-05-10T03:09:48;7.50;;;1.00;;
3941;SDS011;1985;48.592;8.850;2023-05-10T03:12:27;7.50;;;1.00;;
3941;SDS011;1985;48.592;8.850;2023-05-10T03:15:28;8.10;;;1.20;;
3941;SDS011;1985;48.592;8.850;2023-05-10T03:18:11;9.00;;;1.30;;
3941;SDS011;1985;48.592;8.850;2023-05-10T03:20:42;8.65;;;1.20;;
3941;SDS011;1985;48.592;8.850;2023-05-10T03:23:19;7.90;;;1.20;;
3941;SDS011;1985;48.592;8.850;2023-05-10T03:25:50;7.80;;;1.30;;
3941;SDS011;1985;48.592;8.850;2023-05-10T03:28:17;8.50;;;1.20;;
3941;SDS011;1985;48.592;8.850;2023-05-10T03:30:45;7.75;;;1.20;;
3941;SDS011;1985;48.592;8.850;2023-05-10T03:33:12;8.40;;;1.40;;
3941;SDS011;1985;48.592;8.850;2023-05-10T03:35:40;7.93;;;1.33;;
3941;SDS011;1985;48.592;8.850;2023-05-10T03:38:06;7.70;;;1.10;;
3941;SDS011;1985;48.592;8.850;2023-05-10T03:40:31;8.10;;;1.40;;
3941;SDS011;1985;48.592;8.850;2023-05-10T03:42:57;9.50;;;1.38;;
3941;SDS011;1985;48.592;8.850;2023-05-10T03:45:24;7.70;;;1.10;;
3941;SDS011;1985;48.592;8.850;2023-05-10T03:47:49;8.83;;;1.20;;
3941;SDS011;1985;48.592;8.850;2023-05-10T03:50:15;8.45;;;1.27;;
3941;SDS011;1985;48.592;8.850;2023-05-10T03:52:40;7.70;;;1.30;;
3941;SDS011;1985;48.592;8.850;2023-05-10T03:55:06;9.13;;;1.40;;
3941;SDS011;1985;48.592;8.850;2023-05-10T03:57:32;8.88;;;1.40;;
3941;SDS011;1985;48.592;8.850;2023-05-10T03:59:58;7.80;;;1.20;;
3941;SDS011;1985;48.592;8.850;2023-05-10T04:02:24;7.80;;;1.17;;
3941;SDS011;1985;48.592;8.850;2023-05-10T04:04:50;7.90;;;1.30;;
3941;SDS011;1985;48.592;8.850;2023-05-10T04:07:16;9.23;;;1.40;;
3941;SDS011;1985;48.592;8.850;2023-05-10T04:09:41;7.95;;;1.40;;
3941;SDS011;1985;48.592;8.850;2023-05-10T04:12:07;7.63;;;1.13;;
3941;SDS011;1985;48.592;8.850;2023-05-10T04:14:33;8.90;;;1.20;;
3941;SDS011;1985;48.592;8.850;2023-05-10T04:16:58;8.40;;;1.60;;
3941;SDS011;1985;48.592;8.850;2023-05-10T04:19:24;8.30;;;1.30;;
3941;SDS011;1985;48.592;8.850;2023-05-10T04:21:54;8.00;;;1.10;;
3941;SDS011;1985;48.592;8.850;2023-05-10T04:24:19;7.95;;;1.38;;
3941;SDS011;1985;48.592;8.850;2023-05-10T04:26:45;8.30;;;1.40;;
3941;SDS011;1985;48.592;8.850;2023-05-10T04:29:11;7.40;;;1.00;;
3941;SDS011;1985;48.592;8.850;2023-05-10T04:31:36;9.02;;;1.40;;
3941;SDS011;1985;48.592;8.850;2023-05-10T04:34:02;11.80;;;1.40;;
3941;SDS011;1985;48.592;8.850;2023-05-10T04:36:28;9.90;;;1.50;;
3941;SDS011;1985;48.592;8.850;2023-05-10T04:38:53;8.90;;;1.50;;
3941;SDS011;1985;48.592;8.850;2023-05-10T04:41:19;8.70;;;1.30;;
3941;SDS011;1985;48.592;8.850;2023-05-10T04:43:45;7.77;;;1.20;;
3941;SDS011;1985;48.592;8.850;2023-05-10T04:46:13;8.60;;;1.42;;
3941;SDS011;1985;48.592;8.850;2023-05-10T04:48:39;7.85;;;1.10;;
3941;SDS011;1985;48.592;8.850;2023-05-10T04:51:05;8.00;;;1.40;;
3941;SDS011;1985;48.592;8.850;2023-05-10T04:53:31;8.20;;;1.40;;
3941;SDS011;1985;48.592;8.850;2023-05-10T04:55:57;7.72;;;1.20;;
3941;SDS011;1985;48.592;8.850;2023-05-10T04:58:22;7.73;;;1.20;;
3941;SDS011;1985;48.592;8.850;2023-05-10T05:00:48;8.77;;;1.10;;
3941;SDS011;1985;48.592;8.850;2023-05-10T05:03:14;8.17;;;1.30;;
3941;SDS011;1985;48.592;8.850;2023-05-10T05:05:39;8.85;;;1.38;;
3941;SDS011;1985;48.592;8.850;2023-05-10T05:08:05;7.70;;;1.30;;
3941;SDS011;1985;48.592;8.850;2023-05-10T05:10:31;8.07;;;1.50;;
3941;SDS011;1985;48.592;8.850;2023-05-10T05:12:56;8.90;;;1.40;;
3941;SDS011;1985;48.592;8.850;2023-05-10T05:15:22;8.32;;;1.50;;
3941;SDS011;1985;48.592;8.850;2023-05-10T05:17:48;8.20;;;1.40;;
3941;SDS011;1985;48.592;8.850;2023-05-10T05:20:13;8.53;;;1.60;;
3941;SDS011;1985;48.592;8.850;2023-05-10T05:22:39;8.60;;;1.55;;
3941;SDS011;1985;48.592;8.850;2023-05-10T05:25:05;8.80;;;1.50;;
3941;SDS011;1985;48.592;8.850;2023-05-10T05:27:31;8.37;;;1.80;;
3941;SDS011;1985;48.592;8.850;2023-05-10T05:29:57;8.32;;;1.52;;
3941;SDS011;1985;48.592;8.850;2023-05-10T05:32:23;9.80;;;1.80;;
3941;SDS011;1985;48.592;8.850;2023-05-10T05:34:49;9.98;;;1.88;;
3941;SDS011;1985;48.592;8.850;2023-05-10T05:37:16;9.40;;;1.83;;
3941;SDS011;1985;48.592;8.850;2023-05-10T05:39:42;8.40;;;1.60;;
3941;SDS011;1985;48.592;8.850;2023-05-10T05:42:09;8.35;;;1.80;;
3941;SDS011;1985;48.592;8.850;2023-05-10T05:44:34;10.70;;;2.00;;
3941;SDS011;1985;48.592;8.850;2023-05-10T05:47:00;8.20;;;1.60;;
3941;SDS011;1985;48.592;8.850;2023-05-10T05:49:26;8.50;;;1.80;;
3941;SDS011;1985;48.592;8.850;2023-05-10T05:51:52;10.70;;;2.00;;
3941;SDS011;1985;48.592;8.850;2023-05-10T05:54:17;8.20;;;1.60;;
3941;SDS011;1985;48.592;8.850;2023-05-10T05:56:43;9.40;;;1.80;;
3941;SDS011;1985;48.592;8.850;2023-05-10T05:59:09;9.77;;;1.70;;
3941;SDS011;1985;48.592;8.850;2023-05-10T06:01:35;8.15;;;1.67;;
3941;SDS011;1985;48.592;8.850;2023-05-10T06:04:01;7.90;;;1.40;;
3941;SDS011;1985;48.592;8.850;2023-05-10T06:06:26;8.38;;;1.60;;
3941;SDS011;1985;48.592;8.850;2023-05-10T06:08:52;8.20;;;1.40;;
3941;SDS011;1985;48.592;8.850;2023-05-10T06:11:18;8.10;;;1.38;;
3941;SDS011;1985;48.592;8.850;2023-05-10T06:13:44;9.10;;;1.80;;
3941;SDS011;1985;48.592;8.850;2023-05-10T06:16:09;8.40;;;1.60;;
3941;SDS011;1985;48.592;8.850;2023-05-10T06:18:35;9.30;;;1.80;;
3941;SDS011;1985;48.592;8.850;2023-05-10T06:21:01;8.83;;;1.90;;
3941;SDS011;1985;48.592;8.850;2023-05-10T06:23:26;9.93;;;2.10;;
3941;SDS011;1985;48.592;8.850;2023-05-10T06:25:52;9.03;;;1.90;;
3941;SDS011;1985;48.592;8.850;2023-05-10T06:28:17;12.68;;;1.90;;
3941;SDS011;1985;48.592;8.850;2023-05-10T06:30:43;9.53;;;2.20;;
3941;SDS011;1985;48.592;8.850;2023-05-10T06:33:09;11.40;;;2.13;;
3941;SDS011;1985;48.592;8.850;2023-05-10T06:35:35;8.10;;;1.60;;
3941;SDS011;1985;48.592;8.850;2023-05-10T06:38:01;10.40;;;1.87;;
3941;SDS011;1985;48.592;8.850;2023-05-10T06:40:27;8.20;;;1.50;;
3941;SDS011;1985;48.592;8.850;2023-05-10T06:42:53;11.20;;;1.40;;
3941;SDS011;1985;48.592;8.850;2023-05-10T06:45:18;10.30;;;1.40;;
3941;SDS011;1985;48.592;8.850;2023-05-10T06:47:44;9.50;;;1.00;;
3941;SDS011;1985;48.592;8.850;2023-05-10T06:50:10;7.88;;;1.10;;
3941;SDS011;1985;48.592;8.850;2023-05-10T06:52:36;8.10;;;1.30;;
3941;SDS011;1985;48.592;8.850;2023-05-10T06:55:05;9.25;;;1.30;;
3941;SDS011;1985;48.592;8.850;2023-05-10T06:57:31;8.00;;;1.10;;
3941;SDS011;1985;48.592;8.850;2023-05-10T06:59:57;7.80;;;1.20;;
3941;SDS011;1985;48.592;8.850;2023-05-10T07:02:23;9.00;;;1.40;;
3941;SDS011;1985;48.592;8.850;2023-05-10T07:04:49;7.85;;;1.20;;
3941;SDS011;1985;48.592;8.850;2023-05-10T07:07:16;7.40;;;0.90;;
3941;SDS011;1985;48.592;8.850;2023-05-10T07:09:42;9.30;;;1.10;;
3941;SDS011;1985;48.592;8.850;2023-05-10T07:12:08;7.80;;;1.00;;
3941;SDS011;1985;48.592;8.850;2023-05-10T07:14:33;7.40;;;1.00;;
3941;SDS011;1985;48.592;8.850;2023-05-10T07:16:59;7.47;;;1.00;;
3941;SDS011;1985;48.592;8.850;2023-05-10T07:19:24;7.45;;;0.90;;
3941;SDS011;1985;48.592;8.850;2023-05-10T07:21:50;7.70;;;1.10;;
3941;SDS011;1985;48.592;8.850;2023-05-10T07:24:16;8.33;;;1.00;;
3941;SDS011;1985;48.592;8.850;2023-05-10T07:26:41;8.10;;;1.15;;
3941;SDS011;1985;48.592;8.850;2023-05-10T07:29:07;7.90;;;1.20;;
3941;SDS011;1985;48.592;8.850;2023-05-10T07:31:32;9.80;;;1.60;;
3941;SDS011;1985;48.592;8.850;2023-05-10T07:33:58;8.32;;;1.00;;
3941;SDS011;1985;48.592;8.850;2023-05-10T07:36:24;7.40;;;0.90;;
3941;SDS011;1985;48.592;8.850;2023-05-10T07:38:49;7.80;;;1.10;;
3941;SDS011;1985;48.592;8.850;2023-05-10T07:41:15;8.40;;;0.98;;
3941;SDS011;1985;48.592;8.850;2023-05-10T07:43:41;9.80;;;1.40;;
3941;SDS011;1985;48.592;8.850;2023-05-10T07:46:06;9.07;;;1.50;;
3941;SDS011;1985;48.592;8.850;2023-05-10T07:48:32;10.03;;;1.17;;
3941;SDS011;1985;48.592;8.850;2023-05-10T07:50:58;8.30;;;0.98;;
3941;SDS011;1985;48.592;8.850;2023-05-10T07:53:25;7.50;;;1.00;;
3941;SDS011;1985;48.592;8.850;2023-05-10T07:55:51;8.80;;;1.00;;
3941;SDS011;1985;48.592;8.850;2023-05-10T07:58:22;7.40;;;0.90;;
3941;SDS011;1985;48.592;8.850;2023-05-10T08:00:47;7.20;;;0.80;;
3941;SDS011;1985;48.592;8.850;2023-05-10T08:03:14;7.80;;;0.90;;
3941;SDS011;1985;48.592;8.850;2023-05-10T08:05:39;7.85;;;1.00;;
3941;SDS011;1985;48.592;8.850;2023-05-10T08:08:05;10.35;;;1.35;;
3941;SDS011;1985;48.592;8.850;2023-05-10T08:10:31;8.30;;;1.20;;
3941;SDS011;1985;48.592;8.850;2023-05-10T08:12:57;7.50;;;0.90;;
3941;SDS011;1985;48.592;8.850;2023-05-10T08:15:23;7.50;;;0.90;;
3941;SDS011;1985;48.592;8.850;2023-05-10T08:17:50;9.60;;;0.90;;
3941;SDS011;1985;48.592;8.850;2023-05-10T08:20:16;7.78;;;1.00;;
3941;SDS011;1985;48.592;8.850;2023-05-10T08:22:44;7.20;;;0.80;;
3941;SDS011;1985;48.592;8.850;2023-05-10T08:25:10;7.57;;;0.90;;
3941;SDS011;1985;48.592;8.850;2023-05-10T08:27:36;7.50;;;1.00;;
3941;SDS011;1985;48.592;8.850;2023-05-10T08:30:01;7.33;;;0.90;;
3941;SDS011;1985;48.592;8.850;2023-05-10T08:32:27;7.93;;;0.80;;
3941;SDS011;1985;48.592;8.850;2023-05-10T08:34:53;7.20;;;0.80;;
3941;SDS011;1985;48.592;8.850;2023-05-10T08:37:19;12.60;;;1.00;;
3941;SDS011;1985;48.592;8.850;2023-05-10T08:39:45;9.40;;;0.80;;
3941;SDS011;1985;48.592;8.850;2023-05-10T08:42:12;7.10;;;0.70;;
3941;SDS011;1985;48.592;8.850;2023-05-10T08:44:44;7.70;;;0.90;;
3941;SDS011;1985;48.592;8.850;2023-05-10T08:47:11;7.20;;;0.80;;
3941;SDS011;1985;48.592;8.850;2023-05-10T08:49:37;7.60;;;0.80;;
3941;SDS011;1985;48.592;8.850;2023-05-10T08:52:03;7.65;;;0.90;;
3941;SDS011;1985;48.592;8.850;2023-05-10T08:54:31;7.22;;;0.80;;
3941;SDS011;1985;48.592;8.850;2023-05-10T08:56:58;8.00;;;0.85;;
3941;SDS011;1985;48.592;8.850;2023-05-10T08:59:23;7.30;;;0.80;;
3941;SDS011;1985;48.592;8.850;2023-05-10T09:01:49;7.20;;;0.80;;
3941;SDS011;1985;48.592;8.850;2023-05-10T09:04:16;7.70;;;0.90;;
3941;SDS011;1985;48.592;8.850;2023-05-10T09:06:41;7.60;;;0.90;;
3941;SDS011;1985;48.592;8.850;2023-05-10T09:09:07;7.30;;;0.80;;
3941;SDS011;1985;48.592;8.850;2023-05-10T09:11:33;7.40;;;0.80;;
3941;SDS011;1985;48.592;8.850;2023-05-10T09:13:59;7.40;;;0.90;;
3941;SDS011;1985;48.592;8.850;2023-05-10T09:16:26;10.70;;;1.10;;
3941;SDS011;1985;48.592;8.850;2023-05-10T09:18:52;7.10;;;0.73;;
3941;SDS011;1985;48.592;8.850;2023-05-10T09:21:19;7.70;;;1.00;;
3941;SDS011;1985;48.592;8.850;2023-05-10T09:23:45;7.20;;;0.80;;
3941;SDS011;1985;48.592;8.850;2023-05-10T09:26:11;8.02;;;0.90;;
3941;SDS011;1985;48.592;8.850;2023-05-10T09:28:50;7.37;;;0.90;;
3941;SDS011;1985;48.592;8.850;2023-05-10T09:31:16;7.30;;;0.90;;
3941;SDS011;1985;48.592;8.850;2023-05-10T09:33:45;7.57;;;0.80;;
3941;SDS011;1985;48.592;8.850;2023-05-10T09:36:14;7.20;;;0.80;;
3941;SDS011;1985;48.592;8.850;2023-05-10T09:38:50;7.30;;;0.90;;
3941;SDS011;1985;48.592;8.850;2023-05-10T09:43:43;7.20;;;0.80;;
3941;SDS011;1985;48.592;8.850;2023-05-10T09:46:09;7.95;;;0.80;;
3941;SDS011;1985;48.592;8.850;2023-05-10T09:48:39;7.57;;;0.90;;
3941;SDS011;1985;48.592;8.850;2023-05-10T09:51:10;7.90;;;1.00;;
3941;SDS011;1985;48.592;8.850;2023-05-10T09:56:40;7.50;;;0.98;;
3941;SDS011;1985;48.592;8.850;2023-05-10T09:59:07;7.40;;;0.80;;
3941;SDS011;1985;48.592;8.850;2023-05-10T10:01:35;7.40;;;0.90;;
3941;SDS011;1985;48.592;8.850;2023-05-10T10:04:04;8.60;;;1.00;;
3941;SDS011;1985;48.592;8.850;2023-05-10T10:06:37;8.48;;;0.98;;
3941;SDS011;1985;48.592;8.850;2023-05-10T10:09:06;7.40;;;0.90;;
3941;SDS011;1985;48.592;8.850;2023-05-10T10:11:36;7.93;;;1.00;;
3941;SDS011;1985;48.592;8.850;2023-05-10T10:14:03;7.80;;;1.07;;
3941;SDS011;1985;48.592;8.850;2023-05-10T10:16:30;11.10;;;1.00;;
3941;SDS011;1985;48.592;8.850;2023-05-10T10:18:56;8.77;;;1.05;;
3941;SDS011;1985;48.592;8.850;2023-05-10T10:21:22;7.95;;;1.00;;
3941;SDS011;1985;48.592;8.850;2023-05-10T10:23:48;7.60;;;0.90;;
3941;SDS011;1985;48.592;8.850;2023-05-10T10:26:15;7.50;;;0.90;;
3941;SDS011;1985;48.592;8.850;2023-05-10T10:33:59;7.40;;;0.90;;
3941;SDS011;1985;48.592;8.850;2023-05-10T10:36:28;7.60;;;1.00;;
3941;SDS011;1985;48.592;8.850;2023-05-10T10:38:59;11.40;;;0.80;;
3941;SDS011;1985;48.592;8.850;2023-05-10T10:41:30;7.50;;;0.90;;
3941;SDS011;1985;48.592;8.850;2023-05-10T10:49:25;7.32;;;1.00;;
3941;SDS011;1985;48.592;8.850;2023-05-10T10:55:00;9.37;;;0.90;;
3941;SDS011;1985;48.592;8.850;2023-05-10T11:02:53;7.60;;;0.80;;
3941;SDS011;1985;48.592;8.850;2023-05-10T11:08:12;8.00;;;0.90;;
3941;SDS011;1985;48.592;8.850;2023-05-10T11:11:01;7.50;;;0.90;;
3941;SDS011;1985;48.592;8.850;2023-05-10T11:15:54;7.90;;;1.10;;
3941;SDS011;1985;48.592;8.850;2023-05-10T11:18:28;7.80;;;1.00;;
3941;SDS011;1985;48.592;8.850;2023-05-10T11:23:28;7.70;;;1.00;;
3941;SDS011;1985;48.592;8.850;2023-05-10T11:25:59;8.90;;;1.00;;
3941;SDS011;1985;48.592;8.850;2023-05-10T11:28:26;7.43;;;0.80;;
3941;SDS011;1985;48.592;8.850;2023-05-10T11:30:53;7.60;;;0.90;;
3941;SDS011;1985;48.592;8.850;2023-05-10T11:33:20;8.15;;;0.90;;
3941;SDS011;1985;48.592;8.850;2023-05-10T11:35:45;9.50;;;0.97;;
3941;SDS011;1985;48.592;8.850;2023-05-10T11:38:12;7.80;;;1.40;;
3941;SDS011;1985;48.592;8.850;2023-05-10T11:40:39;9.10;;;1.30;;
3941;SDS011;1985;48.592;8.850;2023-05-10T11:43:05;8.53;;;1.10;;
3941;SDS011;1985;48.592;8.850;2023-05-10T11:45:32;7.65;;;1.10;;
3941;SDS011;1985;48.592;8.850;2023-05-10T11:47:58;10.63;;;1.20;;
3941;SDS011;1985;48.592;8.850;2023-05-10T11:50:24;8.50;;;1.00;;
3941;SDS011;1985;48.592;8.850;2023-05-10T11:52:54;11.60;;;1.00;;
3941;SDS011;1985;48.592;8.850;2023-05-10T11:55:21;9.57;;;1.10;;
3941;SDS011;1985;48.592;8.850;2023-05-10T11:57:47;10.18;;;1.10;;
3941;SDS011;1985;48.592;8.850;2023-05-10T12:00:16;9.02;;;1.23;;
3941;SDS011;1985;48.592;8.850;2023-05-10T12:02:41;8.30;;;1.27;;
3941;SDS011;1985;48.592;8.850;2023-05-10T12:05:08;9.40;;;1.20;;
3941;SDS011;1985;48.592;8.850;2023-05-10T12:07:34;10.47;;;1.20;;
3941;SDS011;1985;48.592;8.850;2023-05-10T12:12:39;8.60;;;1.15;;
3941;SDS011;1985;48.592;8.850;2023-05-10T12:15:26;8.10;;;1.10;;
3941;SDS011;1985;48.592;8.850;2023-05-10T12:17:52;7.68;;;1.00;;
3941;SDS011;1985;48.592;8.850;2023-05-10T12:20:22;9.80;;;1.20;;
3941;SDS011;1985;48.592;8.850;2023-05-10T12:22:53;7.60;;;0.98;;
3941;SDS011;1985;48.592;8.850;2023-05-10T12:25:23;8.68;;;1.10;;
3941;SDS011;1985;48.592;8.850;2023-05-10T12:27:55;9.50;;;1.08;;
3941;SDS011;1985;48.592;8.850;2023-05-10T12:30:28;9.40;;;1.30;;
3941;SDS011;1985;48.592;8.850;2023-05-10T12:33:14;8.10;;;1.20;;
3941;SDS011;1985;48.592;8.850;2023-05-10T12:38:28;8.02;;;1.02;;
3941;SDS011;1985;48.592;8.850;2023-05-10T12:40:57;8.03;;;0.90;;
3941;SDS011;1985;48.592;8.850;2023-05-10T12:43:29;8.98;;;1.23;;
3941;SDS011;1985;48.592;8.850;2023-05-10T12:45:55;7.90;;;1.00;;
3941;SDS011;1985;48.592;8.850;2023-05-10T12:48:21;13.60;;;1.40;;
3941;SDS011;1985;48.592;8.850;2023-05-10T12:50:47;8.00;;;0.98;;
3941;SDS011;1985;48.592;8.850;2023-05-10T12:53:14;7.82;;;1.00;;
3941;SDS011;1985;48.592;8.850;2023-05-10T12:55:43;7.30;;;0.90;;
3941;SDS011;1985;48.592;8.850;2023-05-10T12:58:09;8.80;;;1.10;;
3941;SDS011;1985;48.592;8.850;2023-05-10T13:00:35;10.60;;;1.10;;
3941;SDS011;1985;48.592;8.850;2023-05-10T13:03:03;8.00;;;1.10;;
3941;SDS011;1985;48.592;8.850;2023-05-10T13:05:31;8.13;;;1.20;;
3941;SDS011;1985;48.592;8.850;2023-05-10T13:07:57;10.23;;;1.17;;
3941;SDS011;1985;48.592;8.850;2023-05-10T13:10:23;9.20;;;1.30;;
3941;SDS011;1985;48.592;8.850;2023-05-10T13:12:49;7.70;;;1.00;;
3941;SDS011;1985;48.592;8.850;2023-05-10T13:15:15;8.73;;;1.17;;
3941;SDS011;1985;48.592;8.850;2023-05-10T13:17:41;7.73;;;1.17;;
3941;SDS011;1985;48.592;8.850;2023-05-10T13:20:07;8.60;;;1.20;;
3941;SDS011;1985;48.592;8.850;2023-05-10T13:22:34;9.30;;;1.38;;
3941;SDS011;1985;48.592;8.850;2023-05-10T13:25:00;11.13;;;1.17;;
3941;SDS011;1985;48.592;8.850;2023-05-10T13:27:26;11.50;;;1.30;;
3941;SDS011;1985;48.592;8.850;2023-05-10T13:29:52;9.30;;;1.00;;
3941;SDS011;1985;48.592;8.850;2023-05-10T13:32:18;8.30;;;1.00;;
3941;SDS011;1985;48.592;8.850;2023-05-10T13:34:43;7.60;;;1.00;;
3941;SDS011;1985;48.592;8.850;2023-05-10T13:37:09;7.63;;;1.10;;
3941;SDS011;1985;48.592;8.850;2023-05-10T13:39:35;10.50;;;0.90;;
3941;SDS011;1985;48.592;8.850;2023-05-10T13:42:02;8.27;;;0.98;;
3941;SDS011;1985;48.592;8.850;2023-05-10T13:44:28;8.50;;;1.08;;
3941;SDS011;1985;48.592;8.850;2023-05-10T13:46:54;7.60;;;1.00;;
3941;SDS011;1985;48.592;8.850;2023-05-10T13:49:20;7.47;;;0.88;;
3941;SDS011;1985;48.592;8.850;2023-05-10T13:51:46;9.70;;;0.98;;
3941;SDS011;1985;48.592;8.850;2023-05-10T13:54:12;8.23;;;1.00;;
3941;SDS011;1985;48.592;8.850;2023-05-10T13:56:38;8.45;;;0.95;;
3941;SDS011;1985;48.592;8.850;2023-05-10T13:59:04;9.00;;;1.35;;
3941;SDS011;1985;48.592;8.850;2023-05-10T14:01:30;7.70;;;1.00;;
3941;SDS011;1985;48.592;8.850;2023-05-10T14:03:56;8.95;;;1.00;;
3941;SDS011;1985;48.592;8.850;2023-05-10T14:06:21;8.10;;;1.10;;
3941;SDS011;1985;48.592;8.850;2023-05-10T14:08:47;8.10;;;1.00;;
3941;SDS011;1985;48.592;8.850;2023-05-10T14:11:12;8.90;;;1.10;;
3941;SDS011;1985;48.592;8.850;2023-05-10T14:13:38;8.20;;;0.90;;
3941;SDS011;1985;48.592;8.850;2023-05-10T14:16:04;7.60;;;1.00;;
3941;SDS011;1985;48.592;8.850;2023-05-10T14:18:30;8.20;;;0.90;;
3941;SDS011;1985;48.592;8.850;2023-05-10T14:20:55;7.70;;;1.00;;
3941;SDS011;1985;48.592;8.850;2023-05-10T14:23:21;9.30;;;1.10;;
3941;SDS011;1985;48.592;8.850;2023-05-10T14:25:51;7.50;;;0.90;;
3941;SDS011;1985;48.592;8.850;2023-05-10T14:28:17;11.90;;;1.20;;
3941;SDS011;1985;48.592;8.850;2023-05-10T14:30:45;7.80;;;1.05;;
3941;SDS011;1985;48.592;8.850;2023-05-10T14:33:11;7.90;;;0.90;;
3941;SDS011;1985;48.592;8.850;2023-05-10T14:35:37;10.00;;;1.27;;
3941;SDS011;1985;48.592;8.850;2023-05-10T14:38:02;8.07;;;1.00;;
3941;SDS011;1985;48.592;8.850;2023-05-10T14:40:28;8.07;;;1.10;;
3941;SDS011;1985;48.592;8.850;2023-05-10T14:42:54;8.20;;;1.20;;
3941;SDS011;1985;48.592;8.850;2023-05-10T14:45:21;7.53;;;0.93;;
3941;SDS011;1985;48.592;8.850;2023-05-10T14:47:47;7.47;;;0.80;;
3941;SDS011;1985;48.592;8.850;2023-05-10T14:50:13;7.38;;;0.90;;
3941;SDS011;1985;48.592;8.850;2023-05-10T14:52:39;8.60;;;0.90;;
3941;SDS011;1985;48.592;8.850;2023-05-10T14:55:05;7.70;;;1.00;;
3941;SDS011;1985;48.592;8.850;2023-05-10T14:57:31;7.20;;;0.90;;
3941;SDS011;1985;48.592;8.850;2023-05-10T14:59:57;9.20;;;0.85;;
3941;SDS011;1985;48.592;8.850;2023-05-10T15:02:23;8.40;;;1.00;;
3941;SDS011;1985;48.592;8.850;2023-05-10T15:04:48;7.70;;;1.10;;
3941;SDS011;1985;48.592;8.850;2023-05-10T15:07:14;9.00;;;1.10;;
3941;SDS011;1985;48.592;8.850;2023-05-10T15:09:41;8.50;;;1.10;;
3941;SDS011;1985;48.592;8.850;2023-05-10T15:12:06;7.43;;;0.90;;
3941;SDS011;1985;48.592;8.850;2023-05-10T15:14:32;7.70;;;1.10;;
3941;SDS011;1985;48.592;8.850;2023-05-10T15:16:58;7.80;;;0.90;;
3941;SDS011;1985;48.592;8.850;2023-05-10T15:19:24;8.43;;;1.00;;
3941;SDS011;1985;48.592;8.850;2023-05-10T15:21:50;7.65;;;0.82;;
3941;SDS011;1985;48.592;8.850;2023-05-10T15:24:16;9.00;;;0.90;;
3941;SDS011;1985;48.592;8.850;2023-05-10T15:26:41;8.60;;;1.20;;
3941;SDS011;1985;48.592;8.850;2023-05-10T15:29:07;8.60;;;1.05;;
3941;SDS011;1985;48.592;8.850;2023-05-10T15:31:32;8.60;;;0.90;;
3941;SDS011;1985;48.592;8.850;2023-05-10T15:34:01;7.65;;;1.10;;
3941;SDS011;1985;48.592;8.850;2023-05-10T15:36:27;7.68;;;1.00;;
3941;SDS011;1985;48.592;8.850;2023-05-10T15:38:53;7.80;;;0.90;;
3941;SDS011;1985;48.592;8.850;2023-05-10T15:41:19;8.40;;;1.10;;
3941;SDS011;1985;48.592;8.850;2023-05-10T15:43:45;7.57;;;0.90;;
3941;SDS011;1985;48.592;8.850;2023-05-10T15:46:11;9.10;;;1.00;;
3941;SDS011;1985;48.592;8.850;2023-05-10T15:48:37;8.05;;;0.98;;
3941;SDS011;1985;48.592;8.850;2023-05-10T15:51:04;9.60;;;1.00;;
3941;SDS011;1985;48.592;8.850;2023-05-10T15:53:29;7.40;;;0.80;;
3941;SDS011;1985;48.592;8.850;2023-05-10T15:55:55;7.77;;;1.03;;
3941;SDS011;1985;48.592;8.850;2023-05-10T15:58:21;7.85;;;1.00;;
3941;SDS011;1985;48.592;8.850;2023-05-10T16:00:47;7.40;;;0.80;;
3941;SDS011;1985;48.592;8.850;2023-05-10T16:03:12;8.40;;;1.00;;
3941;SDS011;1985;48.592;8.850;2023-05-10T16:05:38;8.10;;;0.90;;